createdAt,value
2017-11-26T00:00:50.897Z,48.59
2017-11-26T00:01:50.912Z,48.69
2017-11-26T00:03:43.898Z,48.69
2017-11-26T00:04:43.930Z,48.59
2017-11-26T00:06:36.938Z,48.30
2017-11-26T00:07:36.933Z,48.59
2017-11-26T00:09:29.888Z,48.59
2017-11-26T00:10:29.921Z,48.79
2017-11-26T00:12:23.168Z,48.69
2017-11-26T00:13:22.929Z,48.79
2017-11-26T00:15:16.009Z,48.88
2017-11-26T00:16:15.940Z,48.97
2017-11-26T00:18:08.927Z,48.69
2017-11-26T00:19:08.937Z,48.69
2017-11-26T00:21:01.918Z,48.69
2017-11-26T00:22:01.939Z,48.79
2017-11-26T00:23:54.951Z,48.79
2017-11-26T00:24:54.950Z,48.79
2017-11-26T00:26:47.507Z,48.79
2017-11-26T00:27:47.533Z,48.69
2017-11-26T00:29:40.053Z,48.79
2017-11-26T00:30:39.969Z,48.79
2017-11-26T00:32:32.966Z,48.97
2017-11-26T00:33:32.977Z,48.88
2017-11-26T00:35:25.974Z,48.69
2017-11-26T00:36:25.987Z,48.79
2017-11-26T00:38:18.967Z,48.88
2017-11-26T00:39:18.995Z,48.88
2017-11-26T00:41:11.994Z,48.79
2017-11-26T00:42:12.079Z,48.79
2017-11-26T00:44:04.995Z,48.79
2017-11-26T00:45:05.004Z,48.69
2017-11-26T00:46:58.000Z,48.88
2017-11-26T00:47:58.006Z,48.79
2017-11-26T00:49:50.990Z,48.79
2017-11-26T00:50:51.013Z,48.79
2017-11-26T00:52:44.132Z,48.79
2017-11-26T00:53:44.028Z,48.88
2017-11-26T00:55:37.012Z,48.79
2017-11-26T00:56:37.021Z,48.79
2017-11-26T00:58:30.018Z,48.49
2017-11-26T00:59:30.022Z,48.79
2017-11-26T01:01:23.019Z,48.79
2017-11-26T01:02:23.035Z,48.79
2017-11-26T01:04:16.031Z,48.79
2017-11-26T01:05:16.054Z,48.79
2017-11-26T01:07:09.038Z,48.79
2017-11-26T01:08:09.059Z,48.79
2017-11-26T01:10:02.046Z,48.79
2017-11-26T01:11:02.055Z,48.88
2017-11-26T01:12:55.033Z,48.69
2017-11-26T01:13:55.057Z,48.69
2017-11-26T01:15:48.083Z,48.59
2017-11-26T01:16:48.075Z,48.88
2017-11-26T01:18:41.045Z,49.07
2017-11-26T01:19:41.073Z,48.69
2017-11-26T01:21:34.081Z,48.97
2017-11-26T01:22:34.077Z,48.88
2017-11-26T01:24:27.060Z,48.79
2017-11-26T01:25:27.076Z,48.79
2017-11-26T01:27:20.089Z,48.97
2017-11-26T01:28:20.094Z,48.69
2017-11-26T01:30:13.074Z,48.88
2017-11-26T01:31:13.099Z,48.59
2017-11-26T01:33:06.103Z,48.79
2017-11-26T01:34:06.204Z,48.79
2017-11-26T01:35:59.084Z,48.88
2017-11-26T01:36:59.108Z,48.88
2017-11-26T01:38:52.110Z,48.69
2017-11-26T01:39:52.112Z,48.69
2017-11-26T01:41:45.099Z,48.79
2017-11-26T01:42:45.122Z,48.69
2017-11-26T01:44:38.175Z,48.69
2017-11-26T01:45:38.125Z,48.79
2017-11-26T01:47:31.110Z,48.79
2017-11-26T01:48:31.135Z,48.79
2017-11-26T01:50:24.130Z,48.79
2017-11-26T01:51:24.133Z,48.79
2017-11-26T01:53:17.121Z,48.59
2017-11-26T01:54:17.151Z,48.88
2017-11-26T01:56:10.149Z,48.69
2017-11-26T01:57:10.148Z,48.79
2017-11-26T01:59:03.154Z,48.69
2017-11-26T02:00:03.180Z,48.69
2017-11-26T02:01:56.156Z,49.07
2017-11-26T02:02:56.150Z,48.88
2017-11-26T02:04:49.142Z,48.69
2017-11-26T02:05:49.164Z,48.59
2017-11-26T02:07:42.202Z,48.69
2017-11-26T02:08:42.165Z,48.79
2017-11-26T02:10:35.161Z,48.97
2017-11-26T02:11:35.172Z,48.79
2017-11-26T02:13:28.190Z,48.79
2017-11-26T02:14:28.175Z,48.79
2017-11-26T02:16:21.167Z,48.69
2017-11-26T02:17:21.186Z,48.59
2017-11-26T02:19:14.201Z,48.59
2017-11-26T02:20:14.200Z,48.69
2017-11-26T02:22:07.201Z,48.69
2017-11-26T02:23:07.221Z,48.88
2017-11-26T02:25:00.196Z,48.59
2017-11-26T02:26:00.207Z,48.59
2017-11-26T02:27:53.186Z,48.69
2017-11-26T02:28:53.207Z,48.69
2017-11-26T02:30:46.219Z,48.79
2017-11-26T02:31:46.229Z,48.97
2017-11-26T02:33:39.200Z,48.79
2017-11-26T02:34:39.220Z,48.59
2017-11-26T02:36:32.222Z,48.88
2017-11-26T02:37:32.230Z,48.79
2017-11-26T02:39:25.219Z,48.88
2017-11-26T02:40:25.250Z,48.79
2017-11-26T02:42:18.232Z,48.69
2017-11-26T02:43:18.243Z,48.49
2017-11-26T02:45:11.243Z,48.88
2017-11-26T02:46:11.255Z,48.88
2017-11-26T02:48:04.230Z,48.79
2017-11-26T02:49:04.278Z,48.69
2017-11-26T02:50:57.259Z,48.88
2017-11-26T02:51:57.266Z,48.79
2017-11-26T02:53:50.250Z,48.59
2017-11-26T02:54:50.259Z,48.69
2017-11-26T02:56:43.267Z,48.79
2017-11-26T02:57:43.272Z,48.49
2017-11-26T02:59:36.252Z,48.79
2017-11-26T03:00:36.277Z,48.69
2017-11-26T03:02:29.284Z,48.79
2017-11-26T03:03:29.298Z,48.79
2017-11-26T03:05:22.263Z,48.79
2017-11-26T03:06:22.289Z,48.88
2017-11-26T03:08:15.304Z,48.79
2017-11-26T03:09:15.295Z,48.79
2017-11-26T03:11:08.274Z,48.79
2017-11-26T03:12:08.303Z,48.88
2017-11-26T03:14:01.317Z,48.88
2017-11-26T03:15:01.324Z,48.79
2017-11-26T03:16:54.287Z,48.69
2017-11-26T03:17:54.305Z,48.88
2017-11-26T03:19:47.314Z,48.69
2017-11-26T03:20:47.315Z,48.79
2017-11-26T03:22:40.315Z,48.79
2017-11-26T03:23:40.327Z,48.79
2017-11-26T03:25:33.320Z,48.69
2017-11-26T03:26:33.328Z,48.69
2017-11-26T03:28:26.311Z,48.97
2017-11-26T03:29:26.334Z,48.69
2017-11-26T03:31:19.331Z,48.69
2017-11-26T03:32:19.337Z,48.69
2017-11-26T03:34:12.329Z,48.88
2017-11-26T03:35:12.351Z,48.69
2017-11-26T03:37:05.361Z,48.79
2017-11-26T03:38:05.361Z,48.79
2017-11-26T03:39:57.738Z,48.69
2017-11-26T03:40:57.760Z,48.79
2017-11-26T03:43:04.382Z,48.69
2017-11-26T03:44:04.362Z,48.79
2017-11-26T03:45:57.350Z,48.79
2017-11-26T03:46:57.372Z,48.79
2017-11-26T03:48:50.361Z,48.85
2017-11-26T03:49:50.373Z,48.88
2017-11-26T03:51:43.377Z,48.76
2017-11-26T03:52:43.381Z,48.40
2017-11-26T03:54:36.382Z,48.69
2017-11-26T03:55:36.402Z,48.79
2017-11-26T03:57:29.395Z,48.69
2017-11-26T03:58:29.394Z,48.49
2017-11-26T04:00:22.383Z,48.79
2017-11-26T04:01:22.394Z,48.76
2017-11-26T04:03:15.416Z,48.69
2017-11-26T04:04:15.407Z,48.79
2017-11-26T04:06:08.391Z,48.79
2017-11-26T04:07:08.407Z,48.79
2017-11-26T04:09:01.407Z,48.79
2017-11-26T04:10:01.414Z,48.79
2017-11-26T04:11:54.397Z,48.79
2017-11-26T04:12:54.419Z,48.79
2017-11-26T04:14:47.428Z,48.79
2017-11-26T04:15:47.425Z,48.76
2017-11-26T04:17:40.407Z,48.85
2017-11-26T04:18:40.435Z,48.76
2017-11-26T04:20:33.441Z,48.88
2017-11-26T04:21:33.440Z,48.97
2017-11-26T04:23:26.414Z,48.97
2017-11-26T04:24:26.536Z,48.97
2017-11-26T04:26:19.450Z,48.88
2017-11-26T04:27:19.451Z,48.79
2017-11-26T04:29:12.439Z,48.79
2017-11-26T04:30:12.460Z,48.79
2017-11-26T04:32:05.464Z,48.79
2017-11-26T04:33:05.476Z,48.79
2017-11-26T04:34:59.348Z,48.79
2017-11-26T04:35:58.470Z,48.88
2017-11-26T04:37:51.475Z,48.85
2017-11-26T04:38:51.473Z,48.79
2017-11-26T04:40:44.468Z,48.66
2017-11-26T04:41:44.480Z,48.79
2017-11-26T04:43:37.469Z,48.30
2017-11-26T04:44:37.482Z,48.66
2017-11-26T04:46:30.476Z,48.59
2017-11-26T04:47:30.542Z,48.38
2017-11-26T04:49:23.483Z,48.59
2017-11-26T04:50:23.492Z,48.40
2017-11-26T04:52:16.480Z,48.69
2017-11-26T04:53:16.504Z,48.79
2017-11-26T04:55:09.492Z,48.40
2017-11-26T04:56:09.503Z,48.79
2017-11-26T04:58:02.603Z,48.59
2017-11-26T04:59:02.523Z,48.85
2017-11-26T05:00:55.514Z,48.66
2017-11-26T05:01:55.528Z,48.95
2017-11-26T05:03:48.529Z,48.97
2017-11-26T05:04:48.524Z,48.66
2017-11-26T05:06:41.515Z,48.79
2017-11-26T05:07:41.548Z,48.79
2017-11-26T05:09:34.535Z,48.85
2017-11-26T05:10:34.545Z,48.69
2017-11-26T05:12:27.525Z,48.59
2017-11-26T05:13:27.544Z,48.95
2017-11-26T05:15:20.550Z,48.66
2017-11-26T05:16:20.546Z,48.38
2017-11-26T05:18:13.541Z,48.76
2017-11-26T05:19:13.554Z,48.57
2017-11-26T05:21:06.547Z,48.38
2017-11-26T05:22:06.557Z,48.59
2017-11-26T05:23:59.545Z,48.79
2017-11-26T05:24:59.571Z,48.69
2017-11-26T05:26:52.592Z,48.79
2017-11-26T05:27:52.601Z,48.47
2017-11-26T05:29:45.558Z,48.57
2017-11-26T05:30:45.588Z,48.30
2017-11-26T05:32:38.581Z,48.59
2017-11-26T05:33:38.585Z,48.95
2017-11-26T05:35:31.571Z,48.38
2017-11-26T05:36:31.595Z,48.95
2017-11-26T05:38:24.601Z,48.76
2017-11-26T05:39:24.603Z,48.66
2017-11-26T05:41:17.571Z,48.76
2017-11-26T05:42:17.596Z,48.59
2017-11-26T05:44:10.593Z,48.69
2017-11-26T05:45:10.603Z,48.79
2017-11-26T05:47:03.590Z,48.95
2017-11-26T05:48:03.612Z,48.66
2017-11-26T05:49:56.622Z,48.66
2017-11-26T05:50:56.621Z,48.97
2017-11-26T05:52:49.610Z,48.88
2017-11-26T05:53:49.626Z,48.97
2017-11-26T05:55:42.618Z,48.21
2017-11-26T05:56:42.627Z,48.79
2017-11-26T05:58:35.616Z,48.59
2017-11-26T05:59:35.639Z,48.47
2017-11-26T06:01:28.637Z,48.49
2017-11-26T06:02:28.641Z,48.69
2017-11-26T06:04:21.625Z,48.59
2017-11-26T06:05:21.646Z,48.47
2017-11-26T06:07:14.662Z,48.47
2017-11-26T06:08:14.659Z,48.47
2017-11-26T06:10:07.655Z,48.66
2017-11-26T06:11:07.666Z,48.47
2017-11-26T06:13:00.682Z,48.49
2017-11-26T06:14:00.675Z,48.18
2017-11-26T06:15:53.656Z,48.11
2017-11-26T06:16:53.684Z,48.49
2017-11-26T06:18:46.682Z,48.47
2017-11-26T06:19:46.688Z,48.57
2017-11-26T06:21:39.668Z,48.66
2017-11-26T06:22:39.691Z,48.69
2017-11-26T06:24:32.695Z,48.57
2017-11-26T06:25:32.691Z,48.57
2017-11-26T06:27:25.689Z,48.47
2017-11-26T06:28:25.696Z,48.76
2017-11-26T06:30:18.207Z,48.76
2017-11-26T06:31:18.228Z,48.08
2017-11-26T06:33:10.681Z,48.30
2017-11-26T06:34:10.699Z,48.47
2017-11-26T06:36:03.712Z,48.47
2017-11-26T06:37:03.709Z,48.40
2017-11-26T06:38:56.688Z,48.28
2017-11-26T06:39:56.709Z,48.21
2017-11-26T06:41:49.726Z,48.18
2017-11-26T06:42:49.721Z,48.38
2017-11-26T06:44:42.701Z,48.28
2017-11-26T06:45:42.724Z,48.49
2017-11-26T06:47:35.727Z,48.38
2017-11-26T06:48:35.737Z,48.66
2017-11-26T06:50:28.722Z,48.47
2017-11-26T06:51:28.742Z,48.38
2017-11-26T06:53:21.768Z,48.40
2017-11-26T06:54:21.749Z,48.57
2017-11-26T06:56:14.734Z,48.49
2017-11-26T06:57:14.760Z,48.59
2017-11-26T06:59:07.783Z,48.47
2017-11-26T07:00:07.779Z,48.49
2017-11-26T07:02:00.745Z,48.57
2017-11-26T07:03:00.772Z,48.47
2017-11-26T07:04:53.758Z,48.57
2017-11-26T07:05:53.765Z,48.47
2017-11-26T07:07:46.756Z,48.66
2017-11-26T07:08:46.775Z,48.69
2017-11-26T07:10:39.779Z,48.47
2017-11-26T07:11:39.783Z,48.59
2017-11-26T07:13:32.778Z,48.47
2017-11-26T07:14:32.790Z,48.47
2017-11-26T07:16:25.798Z,48.38
2017-11-26T07:17:25.806Z,48.40
2017-11-26T07:19:18.216Z,48.38
2017-11-26T07:20:18.246Z,48.28
2017-11-26T07:22:10.796Z,48.47
2017-11-26T07:23:10.816Z,48.38
2017-11-26T07:25:03.790Z,48.57
2017-11-26T07:26:03.810Z,48.28
2017-11-26T07:27:56.830Z,48.47
2017-11-26T07:28:56.824Z,48.28
2017-11-26T07:30:49.800Z,48.38
2017-11-26T07:31:49.820Z,48.38
2017-11-26T07:33:42.838Z,48.47
2017-11-26T07:34:42.839Z,48.47
2017-11-26T07:36:35.817Z,48.38
2017-11-26T07:37:35.831Z,48.47
2017-11-26T07:39:29.728Z,48.38
2017-11-26T07:40:28.845Z,48.47
2017-11-26T07:42:21.825Z,48.47
2017-11-26T07:43:21.856Z,48.47
2017-11-26T07:45:14.836Z,48.57
2017-11-26T07:46:14.860Z,48.38
2017-11-26T07:48:07.832Z,48.47
2017-11-26T07:49:07.853Z,48.38
2017-11-26T07:51:00.855Z,48.47
2017-11-26T07:52:00.865Z,48.57
2017-11-26T07:53:53.854Z,48.57
2017-11-26T07:54:53.876Z,48.47
2017-11-26T07:56:46.869Z,48.47
2017-11-26T07:57:46.877Z,48.47
2017-11-26T07:59:39.858Z,48.47
2017-11-26T08:00:39.873Z,48.38
2017-11-26T08:02:32.901Z,48.47
2017-11-26T08:03:32.890Z,48.38
2017-11-26T08:05:25.919Z,48.76
2017-11-26T08:06:25.906Z,48.28
2017-11-26T08:08:18.889Z,48.47
2017-11-26T08:09:18.895Z,48.38
2017-11-26T08:11:11.886Z,48.47
2017-11-26T08:12:11.904Z,48.18
2017-11-26T08:14:04.905Z,48.18
2017-11-26T08:15:04.917Z,48.08
2017-11-26T08:16:57.900Z,48.18
2017-11-26T08:17:57.920Z,48.18
2017-11-26T08:19:50.922Z,48.66
2017-11-26T08:20:50.942Z,48.47
2017-11-26T08:22:43.908Z,48.47
2017-11-26T08:23:43.931Z,48.49
2017-11-26T08:25:36.926Z,46.74
2017-11-26T08:26:36.935Z,45.68
2017-11-26T08:28:29.932Z,44.43
2017-11-26T08:29:29.939Z,43.28
2017-11-26T08:31:22.932Z,41.24
2017-11-26T08:32:22.943Z,40.95
2017-11-26T08:34:15.939Z,40.66
2017-11-26T08:35:15.951Z,40.47
2017-11-26T08:37:08.941Z,39.49
2017-11-26T08:38:08.958Z,39.39
2017-11-26T08:40:01.941Z,39.39
2017-11-26T08:41:01.962Z,38.99
2017-11-26T08:42:55.207Z,38.79
2017-11-26T08:43:54.964Z,38.89
2017-11-26T08:45:47.934Z,38.49
2017-11-26T08:46:47.962Z,38.96
2017-11-26T08:48:40.962Z,39.26
2017-11-26T08:49:40.973Z,39.06
2017-11-26T08:51:34.006Z,38.95
2017-11-26T08:52:33.984Z,38.95
2017-11-26T08:54:26.974Z,38.85
2017-11-26T08:55:26.981Z,38.56
2017-11-26T08:57:19.990Z,38.85
2017-11-26T08:58:19.997Z,38.85
2017-11-26T09:00:12.996Z,38.83
2017-11-26T09:01:12.997Z,38.83
2017-11-26T09:03:05.997Z,38.93
2017-11-26T09:04:06.009Z,39.29
2017-11-26T09:05:59.029Z,39.68
2017-11-26T09:06:59.044Z,39.97
2017-11-26T09:08:51.995Z,40.35
2017-11-26T09:09:52.109Z,40.56
2017-11-26T09:11:45.033Z,41.04
2017-11-26T09:12:45.039Z,41.33
2017-11-26T09:14:38.010Z,42.19
2017-11-26T09:15:38.026Z,41.80
2017-11-26T09:17:31.031Z,42.19
2017-11-26T09:18:31.040Z,42.11
2017-11-26T09:20:24.119Z,42.60
2017-11-26T09:21:24.045Z,42.30
2017-11-26T09:23:17.049Z,42.30
2017-11-26T09:24:17.058Z,42.21
2017-11-26T09:26:10.031Z,42.40
2017-11-26T09:27:10.048Z,42.60
2017-11-26T09:29:03.070Z,43.00
2017-11-26T09:30:03.068Z,42.90
2017-11-26T09:31:56.058Z,42.81
2017-11-26T09:32:56.059Z,42.81
2017-11-26T09:34:48.256Z,42.90
2017-11-26T09:35:48.269Z,43.21
2017-11-26T09:37:41.073Z,42.90
2017-11-26T09:38:41.074Z,43.12
2017-11-26T09:40:34.063Z,43.12
2017-11-26T09:41:34.073Z,43.12
2017-11-26T09:43:27.065Z,43.21
2017-11-26T09:44:27.091Z,43.12
2017-11-26T09:46:20.081Z,42.73
2017-11-26T09:47:20.156Z,43.02
2017-11-26T09:49:13.074Z,42.76
2017-11-26T09:50:13.093Z,43.14
2017-11-26T09:52:06.091Z,43.04
2017-11-26T09:53:06.106Z,42.76
2017-11-26T09:54:59.085Z,43.04
2017-11-26T09:55:59.114Z,42.76
2017-11-26T09:57:52.245Z,43.14
2017-11-26T09:58:52.117Z,42.85
2017-11-26T10:00:45.115Z,43.14
2017-11-26T10:01:45.130Z,43.23
2017-11-26T10:03:38.136Z,43.33
2017-11-26T10:04:38.141Z,43.33
2017-11-26T10:06:31.119Z,43.35
2017-11-26T10:07:31.136Z,43.35
2017-11-26T10:09:24.163Z,43.26
2017-11-26T10:10:24.166Z,43.35
2017-11-26T10:12:17.194Z,43.35
2017-11-26T10:13:17.197Z,43.35
2017-11-26T10:15:09.457Z,43.26
2017-11-26T10:16:09.458Z,42.97
2017-11-26T10:18:02.191Z,43.64
2017-11-26T10:19:02.178Z,43.54
2017-11-26T10:20:55.184Z,43.45
2017-11-26T10:21:55.199Z,43.64
2017-11-26T10:23:47.656Z,43.07
2017-11-26T10:24:47.667Z,43.45
2017-11-26T10:26:40.185Z,43.35
2017-11-26T10:27:40.201Z,43.26
2017-11-26T10:29:33.206Z,43.26
2017-11-26T10:30:33.209Z,43.64
2017-11-26T10:32:26.191Z,43.74
2017-11-26T10:33:26.215Z,43.07
2017-11-26T10:35:19.237Z,43.26
2017-11-26T10:36:19.255Z,43.45
2017-11-26T10:38:12.206Z,43.35
2017-11-26T10:39:12.221Z,43.16
2017-11-26T10:41:05.234Z,43.35
2017-11-26T10:42:05.233Z,43.28
2017-11-26T10:43:58.217Z,43.35
2017-11-26T10:44:58.236Z,43.26
2017-11-26T10:46:51.252Z,43.57
2017-11-26T10:47:51.272Z,43.57
2017-11-26T10:49:44.222Z,43.76
2017-11-26T10:50:44.252Z,44.05
2017-11-26T10:52:37.257Z,43.95
2017-11-26T10:53:37.259Z,44.43
2017-11-26T10:55:30.239Z,44.53
2017-11-26T10:56:30.269Z,44.43
2017-11-26T10:58:23.265Z,44.34
2017-11-26T10:59:23.266Z,44.62
2017-11-26T11:01:16.251Z,44.24
2017-11-26T11:02:16.297Z,44.62
2017-11-26T11:04:09.296Z,44.82
2017-11-26T11:05:09.280Z,44.82
2017-11-26T11:07:02.268Z,44.53
2017-11-26T11:08:02.286Z,44.43
2017-11-26T11:09:54.979Z,44.82
2017-11-26T11:10:54.990Z,44.62
2017-11-26T11:12:47.277Z,44.72
2017-11-26T11:13:47.309Z,44.72
2017-11-26T11:15:40.289Z,44.26
2017-11-26T11:16:40.297Z,44.72
2017-11-26T11:18:33.290Z,44.53
2017-11-26T11:19:33.297Z,44.35
2017-11-26T11:21:26.331Z,44.34
2017-11-26T11:22:26.319Z,44.26
2017-11-26T11:24:19.287Z,44.26
2017-11-26T11:25:19.307Z,44.74
2017-11-26T11:27:12.325Z,44.55
2017-11-26T11:28:12.329Z,44.55
2017-11-26T11:30:05.311Z,44.35
2017-11-26T11:31:05.333Z,44.26
2017-11-26T11:32:58.349Z,44.17
2017-11-26T11:33:58.328Z,44.45
2017-11-26T11:35:50.522Z,44.65
2017-11-26T11:36:50.542Z,44.45
2017-11-26T11:38:43.343Z,44.55
2017-11-26T11:39:43.341Z,44.55
2017-11-26T11:41:36.332Z,44.55
2017-11-26T11:42:36.353Z,44.65
2017-11-26T11:44:29.365Z,44.45
2017-11-26T11:45:29.373Z,44.45
2017-11-26T11:47:22.369Z,44.35
2017-11-26T11:48:22.403Z,44.65
2017-11-26T11:50:15.403Z,44.76
2017-11-26T11:51:15.410Z,44.55
2017-11-26T11:53:08.377Z,44.74
2017-11-26T11:54:08.395Z,44.74
2017-11-26T11:56:01.398Z,44.55
2017-11-26T11:57:01.411Z,44.65
2017-11-26T11:58:54.395Z,44.65
2017-11-26T11:59:54.415Z,44.84
2017-11-26T12:01:47.407Z,44.17
2017-11-26T12:02:47.415Z,44.35
2017-11-26T12:04:40.406Z,44.65
2017-11-26T12:05:40.416Z,44.65
2017-11-26T12:07:33.428Z,44.74
2017-11-26T12:08:33.440Z,44.07
2017-11-26T12:10:26.428Z,44.84
2017-11-26T12:11:26.437Z,44.93
2017-11-26T12:13:19.440Z,44.65
2017-11-26T12:14:19.446Z,45.61
2017-11-26T12:16:12.430Z,45.61
2017-11-26T12:17:12.483Z,45.80
2017-11-26T12:19:05.460Z,45.13
2017-11-26T12:20:05.448Z,45.22
2017-11-26T12:21:58.439Z,45.03
2017-11-26T12:22:58.463Z,45.22
2017-11-26T12:24:51.461Z,45.32
2017-11-26T12:25:51.471Z,44.84
2017-11-26T12:27:44.601Z,44.74
2017-11-26T12:28:44.476Z,44.93
2017-11-26T12:30:37.464Z,44.84
2017-11-26T12:31:37.472Z,44.55
2017-11-26T12:33:30.462Z,44.55
2017-11-26T12:34:30.481Z,44.84
2017-11-26T12:36:22.652Z,44.55
2017-11-26T12:37:22.656Z,44.55
2017-11-26T12:39:15.483Z,44.45
2017-11-26T12:40:15.500Z,44.55
2017-11-26T12:42:08.548Z,44.74
2017-11-26T12:43:08.556Z,45.32
2017-11-26T12:45:01.500Z,45.22
2017-11-26T12:46:01.533Z,45.22
2017-11-26T12:47:54.518Z,45.13
2017-11-26T12:48:54.525Z,45.22
2017-11-26T12:50:47.517Z,45.22
2017-11-26T12:51:47.544Z,45.32
2017-11-26T12:53:40.530Z,45.32
2017-11-26T12:54:40.612Z,45.22
2017-11-26T12:56:33.528Z,45.42
2017-11-26T12:57:33.544Z,44.65
2017-11-26T12:59:26.547Z,45.42
2017-11-26T13:00:26.547Z,44.74
2017-11-26T13:02:19.537Z,44.93
2017-11-26T13:03:19.558Z,44.84
2017-11-26T13:05:12.613Z,45.03
2017-11-26T13:06:12.557Z,44.84
2017-11-26T13:08:05.547Z,44.74
2017-11-26T13:09:05.576Z,44.74
2017-11-26T13:10:58.561Z,44.74
2017-11-26T13:11:58.574Z,45.03
2017-11-26T13:13:51.565Z,44.84
2017-11-26T13:14:51.597Z,44.74
2017-11-26T13:16:44.573Z,44.74
2017-11-26T13:17:44.651Z,42.82
2017-11-26T13:19:51.576Z,40.99
2017-11-26T13:20:51.601Z,41.26
2017-11-26T13:22:44.105Z,41.93
2017-11-26T13:23:44.114Z,41.93
2017-11-26T13:25:36.584Z,42.41
2017-11-26T13:26:36.607Z,42.22
2017-11-26T13:28:29.598Z,42.80
2017-11-26T13:29:29.608Z,42.70
2017-11-26T13:31:22.592Z,42.99
2017-11-26T13:32:22.616Z,42.80
2017-11-26T13:34:15.611Z,43.08
2017-11-26T13:35:15.622Z,42.80
2017-11-26T13:37:08.618Z,43.08
2017-11-26T13:38:08.648Z,43.18
2017-11-26T13:40:01.622Z,42.91
2017-11-26T13:41:01.645Z,42.91
2017-11-26T13:42:54.638Z,43.11
2017-11-26T13:43:54.641Z,43.28
2017-11-26T13:45:47.646Z,43.30
2017-11-26T13:46:47.666Z,43.40
2017-11-26T13:48:40.755Z,42.91
2017-11-26T13:49:40.674Z,43.40
2017-11-26T13:51:33.661Z,43.30
2017-11-26T13:52:33.667Z,43.40
2017-11-26T13:54:26.654Z,43.68
2017-11-26T13:55:26.678Z,43.40
2017-11-26T13:57:19.680Z,43.30
2017-11-26T13:58:19.688Z,43.30
2017-11-26T14:00:12.667Z,43.49
2017-11-26T14:01:12.687Z,43.49
2017-11-26T14:03:18.370Z,43.49
2017-11-26T14:04:18.372Z,43.68
2017-11-26T14:06:10.707Z,43.88
2017-11-26T14:07:10.727Z,43.88
2017-11-26T14:09:03.736Z,43.59
2017-11-26T14:10:03.745Z,43.40
2017-11-26T14:11:56.727Z,43.51
2017-11-26T14:12:56.746Z,43.49
2017-11-26T14:14:49.735Z,43.32
2017-11-26T14:15:49.745Z,43.41
2017-11-26T14:17:42.728Z,43.32
2017-11-26T14:18:42.752Z,43.32
2017-11-26T14:20:35.756Z,43.32
2017-11-26T14:21:35.767Z,43.32
2017-11-26T14:23:28.829Z,43.32
2017-11-26T14:24:28.772Z,43.23
2017-11-26T14:26:21.779Z,43.23
2017-11-26T14:27:21.790Z,43.23
2017-11-26T14:29:14.775Z,43.03
2017-11-26T14:30:14.789Z,43.32
2017-11-26T14:32:07.779Z,42.93
2017-11-26T14:33:07.797Z,43.51
2017-11-26T14:35:00.777Z,42.93
2017-11-26T14:36:00.792Z,42.93
2017-11-26T14:37:54.683Z,43.03
2017-11-26T14:38:53.824Z,43.51
2017-11-26T14:40:46.806Z,43.13
2017-11-26T14:41:46.835Z,43.13
2017-11-26T14:43:39.816Z,43.23
2017-11-26T14:44:39.825Z,43.23
2017-11-26T14:46:32.804Z,43.13
2017-11-26T14:47:32.835Z,43.32
2017-11-26T14:49:25.819Z,43.13
2017-11-26T14:50:25.835Z,43.41
2017-11-26T14:52:18.827Z,43.03
2017-11-26T14:53:18.857Z,42.74
2017-11-26T14:55:11.828Z,43.03
2017-11-26T14:56:11.854Z,42.84
2017-11-26T14:58:04.828Z,42.93
2017-11-26T14:59:04.852Z,43.03
2017-11-26T15:00:57.908Z,42.84
2017-11-26T15:01:57.864Z,42.76
2017-11-26T15:03:50.838Z,43.05
2017-11-26T15:04:50.865Z,42.96
2017-11-26T15:06:43.167Z,43.05
2017-11-26T15:07:43.179Z,43.05
2017-11-26T15:09:35.862Z,43.05
2017-11-26T15:10:35.872Z,43.05
2017-11-26T15:12:28.860Z,43.05
2017-11-26T15:13:28.889Z,43.05
2017-11-26T15:15:21.858Z,43.05
2017-11-26T15:16:21.885Z,42.86
2017-11-26T15:18:14.873Z,43.05
2017-11-26T15:19:14.890Z,43.15
2017-11-26T15:21:07.875Z,43.15
2017-11-26T15:22:07.901Z,42.86
2017-11-26T15:24:00.894Z,42.76
2017-11-26T15:25:00.906Z,42.76
2017-11-26T15:26:53.882Z,42.69
2017-11-26T15:27:53.969Z,42.69
2017-11-26T15:29:47.056Z,42.67
2017-11-26T15:30:47.054Z,42.30
2017-11-26T15:32:39.891Z,42.49
2017-11-26T15:33:39.929Z,42.49
2017-11-26T15:35:32.936Z,42.47
2017-11-26T15:36:32.942Z,42.49
2017-11-26T15:38:26.028Z,42.40
2017-11-26T15:39:25.934Z,42.59
2017-11-26T15:41:18.350Z,42.97
2017-11-26T15:42:18.346Z,42.40
2017-11-26T15:44:10.924Z,42.40
2017-11-26T15:45:10.953Z,42.59
2017-11-26T15:47:03.967Z,42.49
2017-11-26T15:48:03.957Z,42.69
2017-11-26T15:49:56.951Z,42.59
2017-11-26T15:50:56.974Z,42.21
2017-11-26T15:52:49.957Z,42.40
2017-11-26T15:53:49.975Z,42.69
2017-11-26T15:55:42.969Z,42.79
2017-11-26T15:56:42.982Z,42.69
2017-11-26T15:58:35.966Z,42.59
2017-11-26T15:59:35.976Z,42.49
2017-11-26T16:01:28.965Z,42.49
2017-11-26T16:02:28.990Z,42.40
2017-11-26T16:04:22.000Z,42.40
2017-11-26T16:05:22.013Z,42.59
2017-11-26T16:07:14.995Z,42.69
2017-11-26T16:08:15.024Z,42.59
2017-11-26T16:10:08.002Z,42.59
2017-11-26T16:11:08.023Z,42.49
2017-11-26T16:13:01.002Z,42.59
2017-11-26T16:14:01.024Z,42.49
2017-11-26T16:15:54.048Z,42.59
2017-11-26T16:16:54.031Z,42.59
2017-11-26T16:18:47.012Z,42.69
2017-11-26T16:19:47.042Z,42.88
2017-11-26T16:21:40.352Z,42.88
2017-11-26T16:22:40.057Z,42.69
2017-11-26T16:24:33.017Z,42.59
2017-11-26T16:25:33.044Z,42.79
2017-11-26T16:27:26.051Z,42.40
2017-11-26T16:28:26.065Z,42.59
2017-11-26T16:30:19.050Z,42.88
2017-11-26T16:31:19.069Z,42.79
2017-11-26T16:33:12.056Z,42.69
2017-11-26T16:34:12.074Z,42.79
2017-11-26T16:36:05.052Z,42.59
2017-11-26T16:37:05.067Z,42.69
2017-11-26T16:38:58.084Z,42.49
2017-11-26T16:39:58.093Z,42.69
2017-11-26T16:41:51.062Z,42.21
2017-11-26T16:42:51.088Z,42.67
2017-11-26T16:44:44.086Z,42.69
2017-11-26T16:45:44.106Z,42.21
2017-11-26T16:47:37.071Z,42.21
2017-11-26T16:48:37.095Z,42.38
2017-11-26T16:50:30.096Z,42.67
2017-11-26T16:51:30.118Z,42.28
2017-11-26T16:53:23.091Z,42.47
2017-11-26T16:54:23.108Z,42.19
2017-11-26T16:56:30.015Z,42.28
2017-11-26T16:57:30.045Z,42.09
2017-11-26T16:59:22.251Z,42.09
2017-11-26T17:00:22.259Z,41.89
2017-11-26T17:02:15.114Z,41.89
2017-11-26T17:03:15.108Z,41.71
2017-11-26T17:05:08.119Z,41.89
2017-11-26T17:06:08.135Z,41.80
2017-11-26T17:08:01.125Z,42.09
2017-11-26T17:09:01.130Z,41.99
2017-11-26T17:10:53.659Z,41.89
2017-11-26T17:11:53.662Z,41.99
2017-11-26T17:13:46.145Z,41.99
2017-11-26T17:14:46.145Z,41.80
2017-11-26T17:16:39.132Z,41.71
2017-11-26T17:17:39.140Z,41.89
2017-11-26T17:19:32.136Z,41.89
2017-11-26T17:20:32.151Z,42.09
2017-11-26T17:22:25.155Z,42.16
2017-11-26T17:23:25.161Z,42.26
2017-11-26T17:25:17.765Z,42.36
2017-11-26T17:26:17.783Z,42.36
2017-11-26T17:28:10.192Z,42.36
2017-11-26T17:29:10.164Z,42.16
2017-11-26T17:31:03.155Z,42.26
2017-11-26T17:32:03.180Z,42.65
2017-11-26T17:33:56.176Z,42.65
2017-11-26T17:34:56.178Z,42.55
2017-11-26T17:36:49.160Z,42.36
2017-11-26T17:37:49.193Z,42.16
2017-11-26T17:39:42.178Z,42.26
2017-11-26T17:40:42.200Z,42.26
2017-11-26T17:42:35.183Z,42.36
2017-11-26T17:43:35.196Z,42.46
2017-11-26T17:45:28.204Z,42.36
2017-11-26T17:46:28.203Z,42.46
2017-11-26T17:48:21.201Z,42.65
2017-11-26T17:49:21.215Z,42.55
2017-11-26T17:51:14.247Z,42.93
2017-11-26T17:52:14.220Z,42.93
2017-11-26T17:54:07.210Z,42.74
2017-11-26T17:55:07.219Z,42.65
2017-11-26T17:57:00.249Z,42.84
2017-11-26T17:58:00.230Z,42.65
2017-11-26T17:59:53.222Z,42.65
2017-11-26T18:00:53.234Z,42.65
2017-11-26T18:02:46.253Z,42.84
2017-11-26T18:03:46.274Z,42.36
2017-11-26T18:05:39.242Z,42.55
2017-11-26T18:06:39.276Z,42.46
2017-11-26T18:08:32.273Z,42.46
2017-11-26T18:09:32.271Z,42.55
2017-11-26T18:11:25.256Z,42.55
2017-11-26T18:12:25.263Z,42.74
2017-11-26T18:14:18.082Z,42.65
2017-11-26T18:15:18.068Z,42.74
2017-11-26T18:17:10.247Z,42.65
2017-11-26T18:18:10.303Z,42.26
2017-11-26T18:20:17.301Z,42.74
2017-11-26T18:21:17.290Z,42.36
2017-11-26T18:23:10.273Z,42.55
2017-11-26T18:24:10.295Z,42.65
2017-11-26T18:26:03.320Z,42.74
2017-11-26T18:27:03.325Z,42.84
2017-11-26T18:28:56.299Z,42.96
2017-11-26T18:29:56.313Z,43.13
2017-11-26T18:31:49.315Z,43.13
2017-11-26T18:32:49.302Z,43.15
2017-11-26T18:34:42.302Z,43.05